Time;durP1;ratioP1;P1;durP2;ratioP2;P2;SDS_P1;SDS_P2;PMS_P1;PMS_P2;Temp;Humidity;BMP_temperature;BMP_pressure;BME280_temperature;BME280_humidity;BME280_pressure;Samples;Min_cycle;Max_cycle;Signal;HPM_P1;HPM_P2
2022/08/06 00:02:38;;;;;;;;;;;;;;;15.23;54.19;102355.41;7400187;19;19918;-50
2022/08/06 00:05:09;;;;;;;;;;;;;;;15.18;53.96;102352.81;7397164;19;20328;-51
2022/08/06 00:07:44;;;;;;;;;;;;;;;15.11;53.89;102349.75;7400067;19;19922;-52
2022/08/06 00:10:15;;;;;;;;;;;;;;;15.06;53.67;102335.97;7399239;19;20257;-50
2022/08/06 00:12:43;;;;;;;;;;;;;;;15.09;54.19;102343.66;7399620;19;19952;-48
2022/08/06 00:15:12;;;;;;;;;;;;;;;15.06;54.04;102330.38;7395438;19;19911;-50
2022/08/06 00:17:41;;;;;;;;;;;;;;;14.95;53.94;102329.16;7400483;19;19915;-50
2022/08/06 00:20:10;;;;;;;;;;;;;;;14.95;54.75;102331.94;7400466;19;19922;-49
2022/08/06 00:22:51;;;;;;;;;;;;;;;14.92;54.58;102340.97;7396404;19;19926;-50
2022/08/06 00:25:18;;;;;;;;;;;;;;;14.99;53.76;102337.66;7399250;19;19918;-50
2022/08/06 00:27:46;;;;;;;;;;;;;;;14.91;54.05;102335.72;7395198;19;20353;-51
2022/08/06 00:30:20;;;;;;;;;;;;;;;14.86;53.92;102333.94;7398461;19;20241;-47
2022/08/06 00:32:49;;;;;;;;;;;;;;;14.88;54.05;102337.22;7398304;19;19930;-49
2022/08/06 00:35:19;;;;;;;;;;;;;;;14.86;54.22;102333.94;7394496;19;19926;-48
2022/08/06 00:37:47;;;;;;;;;;;;;;;14.79;53.65;102336.44;7398719;19;19919;-49
2022/08/06 00:40:28;;;;;;;;;;;;;;;14.82;53.52;102334.97;7399428;19;19926;-48
2022/08/06 00:42:58;;;;;;;;;;;;;;;14.84;53.65;102341.84;7397627;19;20392;-50
2022/08/06 00:45:33;;;;;;;;;;;;;;;14.84;53.59;102336.25;7397622;19;19919;-58
2022/08/06 00:48:08;;;;;;;;;;;;;;;14.84;52.88;102333.47;7395245;19;19925;-48
2022/08/06 00:50:55;;;;;;;;;;;;;;;14.71;53.31;102337.31;7398001;19;19918;-48
2022/08/06 00:53:22;;;;;;;;;;;;;;;14.55;54.06;102342.63;7395450;19;20333;-52
2022/08/06 00:56:01;;;;;;;;;;;;;;;14.47;54.73;102343.47;7396735;19;19915;-51
2022/08/06 00:58:57;;;;;;;;;;;;;;;14.49;53.80;102345.91;7395898;19;19929;-49
2022/08/06 01:01:30;;;;;;;;;;;;;;;14.39;54.45;102341.53;7394831;19;19919;-51
2022/08/06 01:04:16;;;;;;;;;;;;;;;14.36;54.23;102344.13;7395328;19;19922;-48
2022/08/06 01:06:43;;;;;;;;;;;;;;;14.37;54.38;102351.34;7395016;19;19918;-49
2022/08/06 01:09:22;;;;;;;;;;;;;;;14.35;54.47;102351.69;7394625;19;19925;-50
2022/08/06 01:11:50;;;;;;;;;;;;;;;14.31;54.18;102355.44;7395513;19;19946;-48
2022/08/06 01:14:18;;;;;;;;;;;;;;;14.32;54.25;102348.75;7395587;19;19919;-48
2022/08/06 01:17:08;;;;;;;;;;;;;;;14.29;54.16;102341.03;7393698;19;19937;-49
2022/08/06 01:19:49;;;;;;;;;;;;;;;14.26;54.23;102336.09;7397526;19;19925;-49
2022/08/06 01:22:54;;;;;;;;;;;;;;;14.10;54.17;102337.78;7395843;19;19986;-48
2022/08/06 01:25:30;;;;;;;;;;;;;;;14.02;54.54;102337.47;7397234;19;20294;-48
2022/08/06 01:28:17;;;;;;;;;;;;;;;13.96;54.20;102336.00;7393682;19;19918;-49
2022/08/06 01:30:57;;;;;;;;;;;;;;;13.89;54.62;102332.91;7394353;19;19978;-49
2022/08/06 01:33:51;;;;;;;;;;;;;;;13.86;55.08;102338.31;7393821;19;19913;-48
2022/08/06 01:36:27;;;;;;;;;;;;;;;13.88;54.68;102342.41;7394947;19;19926;-58
2022/08/06 01:38:57;;;;;;;;;;;;;;;13.85;54.28;102337.47;7395406;19;19923;-48
2022/08/06 01:41:39;;;;;;;;;;;;;;;13.81;55.46;102325.38;7396165;19;20265;-48
2022/08/06 01:44:28;;;;;;;;;;;;;;;13.80;54.92;102332.09;7394995;19;19922;-50
2022/08/06 01:46:58;;;;;;;;;;;;;;;13.75;54.70;102337.81;7392234;19;20329;-54
2022/08/06 01:49:27;;;;;;;;;;;;;;;13.75;54.70;102331.44;7380685;19;20248;-50
2022/08/06 01:52:16;;;;;;;;;;;;;;;13.72;54.34;102332.06;7382333;19;19918;-50
2022/08/06 01:54:58;;;;;;;;;;;;;;;13.61;54.93;102330.78;7376315;19;19915;-51
2022/08/06 01:57:32;;;;;;;;;;;;;;;13.51;55.75;102329.13;7374118;19;19915;-49
2022/08/06 02:00:20;;;;;;;;;;;;;;;13.51;55.57;102329.13;7389959;19;19911;-49
2022/08/06 02:02:58;;;;;;;;;;;;;;;13.43;54.94;102329.94;7393927;19;19918;-49
2022/08/06 02:05:29;;;;;;;;;;;;;;;13.39;55.26;102328.97;7393789;19;19911;-50
2022/08/06 02:08:00;;;;;;;;;;;;;;;13.40;55.81;102325.03;7392141;19;19911;-49
2022/08/06 02:10:49;;;;;;;;;;;;;;;13.50;55.31;102324.72;7391340;19;19915;-50
2022/08/06 02:13:17;;;;;;;;;;;;;;;13.52;55.39;102328.00;7396186;19;19923;-47
2022/08/06 02:15:46;;;;;;;;;;;;;;;13.58;55.25;102317.53;7390539;19;20333;-48
2022/08/06 02:18:29;;;;;;;;;;;;;;;13.62;55.04;102315.72;7393803;19;19926;-48
2022/08/06 02:21:23;;;;;;;;;;;;;;;13.66;54.55;102328.63;7391564;19;19919;-47
2022/08/06 02:24:04;;;;;;;;;;;;;;;13.62;54.99;102336.03;7394306;19;19918;-48
2022/08/06 02:26:34;;;;;;;;;;;;;;;13.58;55.32;102343.38;7391108;19;20578;-55
2022/08/06 02:29:04;;;;;;;;;;;;;;;13.57;55.44;102335.34;7390755;19;19918;-47
2022/08/06 02:31:40;;;;;;;;;;;;;;;13.55;56.83;102338.47;7390910;19;19930;-48
2022/08/06 02:34:18;;;;;;;;;;;;;;;13.57;55.10;102332.56;7392099;19;20257;-48
2022/08/06 02:37:15;;;;;;;;;;;;;;;13.49;55.08;102337.00;7391918;19;19982;-47
2022/08/06 02:40:11;;;;;;;;;;;;;;;13.51;55.27;102331.09;7393315;19;19914;-55
2022/08/06 02:43:04;;;;;;;;;;;;;;;13.49;55.96;102323.09;7392656;19;20344;-51
2022/08/06 02:45:45;;;;;;;;;;;;;;;13.46;55.16;102332.06;7392719;19;20264;-47
2022/08/06 02:48:27;;;;;;;;;;;;;;;13.43;55.23;102321.59;7387694;19;19956;-51
2022/08/06 02:51:01;;;;;;;;;;;;;;;13.32;55.89;102321.09;7392199;19;20005;-50
2022/08/06 02:53:34;;;;;;;;;;;;;;;13.31;56.23;102327.81;7392459;19;19929;-51
2022/08/06 02:56:23;;;;;;;;;;;;;;;13.32;56.64;102326.66;7393741;19;19926;-52
2022/08/06 02:58:56;;;;;;;;;;;;;;;13.28;55.54;102319.31;7391136;19;19929;-48
2022/08/06 03:01:43;;;;;;;;;;;;;;;13.29;55.43;102315.38;7390942;19;20039;-48
2022/08/06 03:04:12;;;;;;;;;;;;;;;13.25;56.14;102311.59;7392919;19;19926;-48
2022/08/06 03:06:42;;;;;;;;;;;;;;;13.24;55.72;102315.50;7389138;19;19919;-50
2022/08/06 03:09:11;;;;;;;;;;;;;;;13.23;56.09;102313.91;7391376;19;19919;-48
2022/08/06 03:11:44;;;;;;;;;;;;;;;13.21;55.31;102316.97;7390186;19;19919;-50
2022/08/06 03:14:17;;;;;;;;;;;;;;;13.15;55.72;102320.25;7390250;19;19922;-53
2022/08/06 03:17:25;;;;;;;;;;;;;;;13.05;55.76;102314.97;7389663;19;19944;-49
2022/08/06 03:19:56;;;;;;;;;;;;;;;12.97;55.90;102310.22;7392691;19;19922;-49
2022/08/06 03:22:27;;;;;;;;;;;;;;;12.98;56.14;102306.28;7389390;19;19918;-48
2022/08/06 03:25:12;;;;;;;;;;;;;;;13.03;55.46;102306.13;7392391;19;20237;-48
2022/08/06 03:27:42;;;;;;;;;;;;;;;12.94;56.74;102319.19;7389041;19;20282;-52
2022/08/06 03:30:15;;;;;;;;;;;;;;;12.81;56.11;102318.97;7392053;19;19930;-48
2022/08/06 03:33:04;;;;;;;;;;;;;;;12.77;57.18;102317.19;7390402;19;19915;-48
2022/08/06 03:35:49;;;;;;;;;;;;;;;12.87;56.16;102316.09;7390385;19;19925;-51
2022/08/06 03:38:21;;;;;;;;;;;;;;;12.89;56.88;102316.56;7392413;19;19925;-49
2022/08/06 03:40:55;;;;;;;;;;;;;;;12.86;55.93;102320.81;7390730;19;19978;-48
2022/08/06 03:43:23;;;;;;;;;;;;;;;12.78;56.34;102324.38;7389494;19;20333;-53
2022/08/06 03:45:58;;;;;;;;;;;;;;;12.70;56.21;102314.06;7389084;19;19918;-48
2022/08/06 03:48:28;;;;;;;;;;;;;;;12.74;56.65;102315.88;7389809;19;19925;-48
2022/08/06 03:51:09;;;;;;;;;;;;;;;12.81;56.53;102316.19;7390833;19;19930;-49
2022/08/06 03:53:38;;;;;;;;;;;;;;;12.80;55.63;102314.59;7390489;19;19915;-48
2022/08/06 03:56:15;;;;;;;;;;;;;;;12.71;56.16;102329.56;7386440;19;19923;-47
2022/08/06 03:58:44;;;;;;;;;;;;;;;12.70;57.07;102317.66;7387558;19;19918;-48
2022/08/06 04:01:16;;;;;;;;;;;;;;;12.64;56.78;102318.94;7393859;19;19942;-47
2022/08/06 04:03:46;;;;;;;;;;;;;;;12.64;57.04;102310.59;7392449;19;19919;-49
2022/08/06 04:06:19;;;;;;;;;;;;;;;12.63;56.66;102319.25;7392094;19;19946;-48
2022/08/06 04:08:47;;;;;;;;;;;;;;;12.60;57.05;102317.91;7387182;19;19922;-48
2022/08/06 04:11:16;;;;;;;;;;;;;;;12.64;57.93;102329.22;7378836;19;19914;-47
2022/08/06 04:14:04;;;;;;;;;;;;;;;12.63;57.13;102328.41;7376408;19;19919;-48
2022/08/06 04:16:36;;;;;;;;;;;;;;;12.66;58.74;102338.06;7372312;19;20888;-50
2022/08/06 04:19:04;;;;;;;;;;;;;;;12.59;56.69;102338.53;7378476;19;20249;-54
2022/08/06 04:21:38;;;;;;;;;;;;;;;12.60;57.42;102334.59;7389345;19;19947;-49
2022/08/06 04:24:25;;;;;;;;;;;;;;;12.58;56.58;102341.63;7391535;19;19930;-48
2022/08/06 04:27:00;;;;;;;;;;;;;;;12.54;56.61;102335.91;7390272;19;19927;-50
2022/08/06 04:29:36;;;;;;;;;;;;;;;12.60;58.98;102334.59;7391900;19;19951;-47
2022/08/06 04:32:24;;;;;;;;;;;;;;;12.61;57.67;102339.03;7391711;19;19933;-50
2022/08/06 04:34:57;;;;;;;;;;;;;;;12.58;58.40;102323.00;7396631;19;20273;-47
2022/08/06 04:37:45;;;;;;;;;;;;;;;12.52;60.08;102331.81;7395332;19;19923;-48
2022/08/06 04:40:19;;;;;;;;;;;;;;;12.49;58.43;102336.03;7397624;19;19922;-49
2022/08/06 04:43:06;;;;;;;;;;;;;;;12.44;58.66;102335.34;7398083;19;20817;-50
2022/08/06 04:45:35;;;;;;;;;;;;;;;12.41;57.80;102331.25;7395579;19;19926;-48
2022/08/06 04:48:23;;;;;;;;;;;;;;;12.36;58.50;102344.47;7395973;19;19986;-48
2022/08/06 04:50:51;;;;;;;;;;;;;;;12.36;58.69;102342.50;7395852;19;19918;-47
2022/08/06 04:53:21;;;;;;;;;;;;;;;12.36;58.29;102333.34;7394083;19;19914;-51
2022/08/06 04:56:09;;;;;;;;;;;;;;;12.37;58.29;102340.53;7394643;19;19919;-48
2022/08/06 04:58:42;;;;;;;;;;;;;;;12.37;59.17;102338.56;7396222;19;19926;-48
2022/08/06 05:01:11;;;;;;;;;;;;;;;12.37;61.03;102346.06;7394900;19;20325;-52
2022/08/06 05:03:39;;;;;;;;;;;;;;;12.36;59.04;102342.50;7396868;19;19911;-47
2022/08/06 05:06:45;;;;;;;;;;;;;;;12.37;58.70;102346.91;7400124;19;19918;-48
2022/08/06 05:09:18;;;;;;;;;;;;;;;12.41;58.94;102338.75;7398556;19;19922;-48
2022/08/06 05:12:17;;;;;;;;;;;;;;;12.38;58.45;102334.66;7394992;19;19927;-49
2022/08/06 05:15:03;;;;;;;;;;;;;;;12.42;59.83;102348.72;7395966;19;20246;-49
2022/08/06 05:17:36;;;;;;;;;;;;;;;12.40;58.53;102340.72;7391559;19;19992;-48
2022/08/06 05:20:18;;;;;;;;;;;;;;;12.40;58.47;102346.28;7394692;19;19929;-49
2022/08/06 05:23:00;;;;;;;;;;;;;;;12.41;59.21;102336.00;7396765;19;19910;-48
2022/08/06 05:25:31;;;;;;;;;;;;;;;12.48;58.45;102342.72;7395808;19;19949;-47
2022/08/06 05:28:06;;;;;;;;;;;;;;;12.52;59.85;102349.25;7392526;19;19929;-49
2022/08/06 05:30:42;;;;;;;;;;;;;;;12.56;58.85;102355.84;7394857;19;20333;-49
2022/08/06 05:33:11;;;;;;;;;;;;;;;12.61;58.84;102350.13;7393923;19;20260;-49
2022/08/06 05:35:43;;;;;;;;;;;;;;;12.65;59.73;102351.16;7393838;19;19919;-48
2022/08/06 05:38:27;;;;;;;;;;;;;;;12.71;58.91;102343.47;7395405;19;19930;-48
2022/08/06 05:40:59;;;;;;;;;;;;;;;12.77;58.57;102350.53;7394375;19;19929;-48
2022/08/06 05:43:27;;;;;;;;;;;;;;;12.77;59.09;102345.78;7395571;19;19926;-50
2022/08/06 05:46:17;;;;;;;;;;;;;;;12.76;59.08;102344.16;7393462;19;19918;-52
2022/08/06 05:48:57;;;;;;;;;;;;;;;12.76;60.05;102346.94;7393670;19;19970;-57
2022/08/06 05:51:53;;;;;;;;;;;;;;;12.73;59.11;102342.00;7394546;19;19918;-48
2022/08/06 05:54:34;;;;;;;;;;;;;;;12.73;60.11;102358.69;7392553;19;19919;-58
2022/08/06 05:57:21;;;;;;;;;;;;;;;12.77;59.47;102348.56;7393887;19;19926;-47
2022/08/06 06:00:14;;;;;;;;;;;;;;;12.79;58.88;102346.28;7394834;19;19915;-51
2022/08/06 06:03:02;;;;;;;;;;;;;;;12.83;59.04;102350.06;7393230;19;19925;-48
2022/08/06 06:05:30;;;;;;;;;;;;;;;12.87;59.58;102346.66;7395572;19;19925;-48
2022/08/06 06:08:19;;;;;;;;;;;;;;;12.88;59.34;102353.84;7392125;19;19925;-49
2022/08/06 06:11:05;;;;;;;;;;;;;;;12.90;59.05;102354.31;7391854;19;19930;-50
2022/08/06 06:13:34;;;;;;;;;;;;;;;12.90;60.20;102348.78;7391839;19;20340;-49
2022/08/06 06:16:35;;;;;;;;;;;;;;;12.88;59.40;102353.84;7393343;19;19918;-48
2022/08/06 06:19:20;;;;;;;;;;;;;;;12.90;59.57;102354.31;7391466;19;20344;-48
2022/08/06 06:22:35;;;;;;;;;;;;;;;12.89;60.26;102361.03;7394737;19;19926;-54
2022/08/06 06:25:06;;;;;;;;;;;;;;;12.90;60.10;102371.00;7394066;19;19918;-49
2022/08/06 06:27:48;;;;;;;;;;;;;;;12.90;61.25;102365.44;7392533;19;19914;-53
2022/08/06 06:30:23;;;;;;;;;;;;;;;12.93;60.77;102365.63;7393178;19;19915;-52
2022/08/06 06:33:29;;;;;;;;;;;;;;;12.91;60.78;102378.22;7381248;19;19919;-48
2022/08/06 06:36:28;;;;;;;;;;;;;;;12.91;61.49;102372.66;7371242;19;19919;-53
2022/08/06 06:39:13;;;;;;;;;;;;;;;12.93;59.77;102375.94;7365310;19;20329;-53
2022/08/06 06:41:49;;;;;;;;;;;;;;;12.97;62.01;102382.50;7369254;19;19918;-50
2022/08/06 06:44:45;;;;;;;;;;;;;;;12.93;62.89;102371.19;7393490;19;19945;-49
2022/08/06 06:47:44;;;;;;;;;;;;;;;12.88;61.71;102374.13;7393302;19;21058;-49
2022/08/06 06:50:29;;;;;;;;;;;;;;;12.86;61.27;102381.97;7390320;19;19917;-48
2022/08/06 06:53:05;;;;;;;;;;;;;;;12.91;61.78;102381.81;7393719;19;19915;-49
2022/08/06 06:55:45;;;;;;;;;;;;;;;12.95;61.09;102379.19;7389989;19;19918;-47
2022/08/06 06:58:36;;;;;;;;;;;;;;;13.02;61.84;102377.63;7391002;19;20373;-49
2022/08/06 07:01:06;;;;;;;;;;;;;;;13.05;62.19;102388.06;7392452;19;19926;-48
2022/08/06 07:03:54;;;;;;;;;;;;;;;13.10;61.97;102381.59;7392568;19;19945;-50
2022/08/06 07:06:22;;;;;;;;;;;;;;;13.18;63.48;102389.16;7391788;19;20740;-48
2022/08/06 07:08:59;;;;;;;;;;;;;;;13.21;62.46;102388.50;7390869;19;19923;-48
2022/08/06 07:11:44;;;;;;;;;;;;;;;13.25;61.65;102393.09;7392513;19;19919;-49
2022/08/06 07:14:32;;;;;;;;;;;;;;;13.35;61.53;102390.00;7392580;19;19923;-50
2022/08/06 07:17:04;;;;;;;;;;;;;;;13.43;61.27;102393.94;7388811;19;19922;-54
2022/08/06 07:19:58;;;;;;;;;;;;;;;13.53;61.85;102393.63;7390300;19;19998;-51
2022/08/06 07:22:26;;;;;;;;;;;;;;;13.63;62.91;102403.63;7392794;19;19910;-47
2022/08/06 07:24:58;;;;;;;;;;;;;;;13.69;61.69;102394.78;7392734;19;19914;-47
2022/08/06 07:27:37;;;;;;;;;;;;;;;13.78;61.84;102389.22;7389739;19;19918;-47
2022/08/06 07:30:13;;;;;;;;;;;;;;;13.93;61.85;102400.69;7395126;19;19974;-52
2022/08/06 07:32:49;;;;;;;;;;;;;;;14.06;61.88;102400.88;7393485;19;19914;-47
2022/08/06 07:35:18;;;;;;;;;;;;;;;14.16;62.08;102397.75;7392498;19;20341;-51
2022/08/06 07:37:51;;;;;;;;;;;;;;;14.29;60.99;102396.75;7392850;19;20248;-50
2022/08/06 07:40:23;;;;;;;;;;;;;;;14.42;61.82;102401.34;7394694;19;19918;-48
2022/08/06 07:43:16;;;;;;;;;;;;;;;14.53;61.45;102403.41;7392583;19;19911;-53
2022/08/06 07:45:54;;;;;;;;;;;;;;;14.65;62.19;102399.97;7392086;19;19922;-51
2022/08/06 07:48:31;;;;;;;;;;;;;;;14.74;61.62;102392.41;7392400;19;19921;-50
2022/08/06 07:51:00;;;;;;;;;;;;;;;14.87;61.66;102399.72;7394093;19;19921;-50
2022/08/06 07:53:32;;;;;;;;;;;;;;;15.01;61.93;102403.09;7387625;19;19929;-50
2022/08/06 07:56:24;;;;;;;;;;;;;;;15.21;61.80;102401.53;7392229;19;19922;-49
2022/08/06 07:58:53;;;;;;;;;;;;;;;15.40;61.78;102392.72;7393975;19;19915;-47
2022/08/06 08:01:24;;;;;;;;;;;;;;;15.60;62.39;102397.53;7392144;19;19915;-50
2022/08/06 08:07:31;;;;;;;;;;;;;;;16.07;60.90;102398.16;7386186;19;19952;-50
2022/08/06 08:10:20;;;;;;;;;;;;;;;16.42;60.97;102397.47;7396792;19;19994;-47
2022/08/06 08:12:55;;;;;;;;;;;;;;;16.73;59.95;102401.78;7396562;19;19986;-48
2022/08/06 08:15:22;;;;;;;;;;;;;;;17.06;61.59;102391.31;7399088;19;19919;-47
2022/08/06 08:17:53;;;;;;;;;;;;;;;17.39;62.82;102383.63;7398311;19;19922;-49
2022/08/06 08:20:29;;;;;;;;;;;;;;;17.79;61.37;102388.47;7398817;19;19919;-50
2022/08/06 08:23:05;;;;;;;;;;;;;;;18.26;61.33;102386.66;7399260;19;19918;-50
2022/08/06 08:25:37;;;;;;;;;;;;;;;18.80;61.22;102396.16;7399643;19;19970;-51
2022/08/06 08:28:08;;;;;;;;;;;;;;;19.40;59.80;102394.09;7396660;19;19974;-50
2022/08/06 08:30:39;;;;;;;;;;;;;;;19.89;55.77;102394.38;7399576;19;20277;-51
2022/08/06 08:33:07;;;;;;;;;;;;;;;20.26;57.69;102389.97;7397590;19;19911;-51
2022/08/06 08:35:41;;;;;;;;;;;;;;;20.65;57.12;102385.13;7399281;19;19911;-50
2022/08/06 08:38:22;;;;;;;;;;;;;;;21.22;57.88;102399.00;7398092;19;20248;-54
2022/08/06 08:40:56;;;;;;;;;;;;;;;21.71;54.43;102398.91;7399032;19;19930;-54
2022/08/06 08:43:27;;;;;;;;;;;;;;;22.09;52.87;102397.03;7397883;19;19918;-51
2022/08/06 08:46:14;;;;;;;;;;;;;;;22.47;49.57;102395.88;7399871;19;20361;-53
2022/08/06 08:48:43;;;;;;;;;;;;;;;22.76;48.98;102390.16;7398145;19;19922;-51
2022/08/06 08:51:12;;;;;;;;;;;;;;;23.08;52.84;102392.47;7397342;19;19917;-61
2022/08/06 08:53:44;;;;;;;;;;;;;;;23.35;52.43;102391.06;7396287;19;19931;-51
2022/08/06 08:56:13;;;;;;;;;;;;;;;23.62;50.74;102395.28;7379086;19;19915;-54
2022/08/06 08:59:04;;;;;;;;;;;;;;;23.58;46.33;102386.81;7378222;19;20353;-51
2022/08/06 09:01:52;;;;;;;;;;;;;;;23.72;51.00;102388.09;7379882;19;20333;-60
2022/08/06 09:04:23;;;;;;;;;;;;;;;23.93;47.83;102391.84;7385234;19;19912;-55
2022/08/06 09:06:55;;;;;;;;;;;;;;;23.95;49.38;102382.94;7398057;19;19929;-51
2022/08/06 09:09:23;;;;;;;;;;;;;;;24.18;47.26;102389.94;7396525;19;19926;-47
2022/08/06 09:11:59;;;;;;;;;;;;;;;24.33;46.82;102379.47;7397002;19;19923;-51
2022/08/06 09:14:35;;;;;;;;;;;;;;;24.50;47.09;102378.72;7395245;19;19919;-54
2022/08/06 09:17:03;;;;;;;;;;;;;;;24.58;46.03;102386.00;7387886;19;19919;-53
2022/08/06 09:19:36;;;;;;;;;;;;;;;24.67;47.54;102383.59;7393065;19;20309;-51
2022/08/06 09:22:08;;;;;;;;;;;;;;;24.83;45.92;102379.59;7392677;19;19918;-51
2022/08/06 09:24:38;;;;;;;;;;;;;;;25.01;43.62;102380.41;7397476;19;20273;-52
2022/08/06 09:27:09;;;;;;;;;;;;;;;25.14;45.37;102378.78;7393811;19;19915;-51
2022/08/06 09:29:57;;;;;;;;;;;;;;;25.20;44.30;102385.69;7397482;19;20353;-52
2022/08/06 09:32:58;;;;;;;;;;;;;;;25.22;43.06;102381.22;7396102;19;20429;-55
2022/08/06 09:35:56;;;;;;;;;;;;;;;25.17;43.53;102390.13;7393950;19;19955;-54
2022/08/06 09:38:25;;;;;;;;;;;;;;;25.28;43.25;102390.91;7395871;19;19915;-51
2022/08/06 09:41:11;;;;;;;;;;;;;;;25.36;44.04;102388.91;7397902;19;19907;-54
2022/08/06 09:43:48;;;;;;;;;;;;;;;25.41;44.19;102394.16;7396174;19;19970;-54
2022/08/06 09:46:37;;;;;;;;;;;;;;;25.31;42.67;102392.16;7384617;19;19918;-54
2022/08/06 09:49:05;;;;;;;;;;;;;;;25.17;43.62;102404.31;7391339;19;19918;-53
2022/08/06 09:52:12;;;;;;;;;;;;;;;25.07;42.09;102410.75;7392195;19;19948;-53
2022/08/06 09:54:40;;;;;;;;;;;;;;;25.02;42.77;102404.72;7392428;19;19919;-50
2022/08/06 09:57:09;;;;;;;;;;;;;;;25.07;41.13;102409.97;7391868;19;20245;-52
2022/08/06 09:59:47;;;;;;;;;;;;;;;24.83;42.67;102403.09;7394042;19;20253;-51
2022/08/06 10:02:18;;;;;;;;;;;;;;;24.90;43.68;102411.56;7397378;19;19923;-51
2022/08/06 10:05:09;;;;;;;;;;;;;;;25.06;42.81;102406.31;7393206;19;19925;-51
2022/08/06 10:07:47;;;;;;;;;;;;;;;25.32;43.11;102393.75;7391954;19;19922;-54
2022/08/06 10:10:37;;;;;;;;;;;;;;;25.50;43.14;102403.06;7395304;19;19922;-50
2022/08/06 10:13:33;;;;;;;;;;;;;;;25.52;40.16;102405.50;7392794;19;19927;-51
2022/08/06 10:16:19;;;;;;;;;;;;;;;25.54;42.43;102395.38;7394425;19;20244;-61
2022/08/06 10:19:15;;;;;;;;;;;;;;;25.60;42.21;102396.56;7391389;19;19918;-53
2022/08/06 10:21:45;;;;;;;;;;;;;;;25.84;42.81;102387.16;7394925;19;19919;-54
2022/08/06 10:24:15;;;;;;;;;;;;;;;25.99;43.03;102388.75;7391766;19;19919;-52
2022/08/06 10:27:06;;;;;;;;;;;;;;;25.98;41.22;102389.16;7394057;19;20899;-53
2022/08/06 10:29:46;;;;;;;;;;;;;;;25.89;41.56;102381.06;7389857;19;20288;-52
2022/08/06 10:32:15;;;;;;;;;;;;;;;25.83;41.48;102381.91;7393108;19;19974;-50
2022/08/06 10:34:46;;;;;;;;;;;;;;;25.88;41.43;102381.50;7392436;19;19948;-51
2022/08/06 10:37:15;;;;;;;;;;;;;;;26.02;42.09;102387.13;7390049;19;19915;-49
2022/08/06 10:40:03;;;;;;;;;;;;;;;25.78;40.87;102377.47;7390556;19;19925;-53
2022/08/06 10:42:38;;;;;;;;;;;;;;;25.54;41.35;102391.72;7391929;19;20616;-54
2022/08/06 10:45:11;;;;;;;;;;;;;;;25.34;40.42;102377.94;7393138;19;19923;-51
2022/08/06 10:47:46;;;;;;;;;;;;;;;25.18;41.49;102371.06;7388515;19;19914;-48
2022/08/06 10:50:34;;;;;;;;;;;;;;;24.89;40.88;102366.66;7393381;19;19914;-50
2022/08/06 10:53:11;;;;;;;;;;;;;;;24.54;42.20;102376.69;7389081;19;19937;-50
2022/08/06 10:56:14;;;;;;;;;;;;;;;24.10;42.50;102370.50;7393144;19;20415;-50
2022/08/06 10:58:48;;;;;;;;;;;;;;;23.79;42.66;102357.81;7389363;19;19926;-47
2022/08/06 11:01:18;;;;;;;;;;;;;;;23.71;43.27;102369.50;7389723;19;19914;31
2022/08/06 11:04:12;;;;;;;;;;;;;;;23.72;43.04;102354.16;7391364;19;21199;-49
2022/08/06 11:07:03;;;;;;;;;;;;;;;23.78;42.75;102369.50;7394846;19;19915;-50
2022/08/06 11:09:46;;;;;;;;;;;;;;;23.80;43.11;102355.81;7395306;19;19918;-48
2022/08/06 11:12:34;;;;;;;;;;;;;;;23.60;43.12;102364.59;7393890;19;20252;-47
2022/08/06 11:15:05;;;;;;;;;;;;;;;23.12;43.35;102356.56;7387698;19;19915;-54
2022/08/06 11:17:43;;;;;;;;;;;;;;;22.65;44.43;102363.00;7379858;19;20023;-47
2022/08/06 11:20:41;;;;;;;;;;;;;;;22.25;44.94;102358.94;7377675;19;20439;-50
2022/08/06 11:23:16;;;;;;;;;;;;;;;21.96;46.00;102359.00;7384157;19;19914;-54
2022/08/06 11:26:03;;;;;;;;;;;;;;;21.83;45.43;102352.78;7390854;19;19951;-47
2022/08/06 11:28:31;;;;;;;;;;;;;;;21.78;45.65;102348.28;7394746;19;19918;-50
2022/08/06 11:31:00;;;;;;;;;;;;;;;21.92;46.33;102356.16;7392335;19;20022;-49
2022/08/06 11:33:33;;;;;;;;;;;;;;;21.99;45.75;102359.03;7394506;19;19923;-48
2022/08/06 11:36:02;;;;;;;;;;;;;;;21.87;46.13;102355.69;7393772;19;20240;-47
2022/08/06 11:38:42;;;;;;;;;;;;;;;21.82;46.34;102365.22;7392740;19;19914;-48
2022/08/06 11:41:27;;;;;;;;;;;;;;;21.97;46.02;102355.81;7395870;19;19907;-48
2022/08/06 11:44:19;;;;;;;;;;;;;;;22.19;45.72;102346.38;7393566;19;19919;-47
2022/08/06 11:47:11;;;;;;;;;;;;;;;22.33;46.21;102346.53;7393677;19;19915;-48
2022/08/06 11:50:00;;;;;;;;;;;;;;;22.38;45.83;102343.38;7391361;19;19918;-49
2022/08/06 11:52:31;;;;;;;;;;;;;;;22.35;45.92;102346.16;7394914;19;19918;-49
2022/08/06 11:55:09;;;;;;;;;;;;;;;22.27;45.92;102336.78;7392675;19;20238;-49
2022/08/06 11:57:48;;;;;;;;;;;;;;;22.18;45.81;102346.78;7391493;19;19915;-48
2022/08/06 12:00:21;;;;;;;;;;;;;;;22.07;46.29;102346.66;7392287;19;20268;-51
2022/08/06 12:02:51;;;;;;;;;;;;;;;21.96;46.94;102337.25;7394186;19;20344;-51
2022/08/06 12:05:20;;;;;;;;;;;;;;;21.93;47.01;102349.28;7392467;19;19918;-48
2022/08/06 12:08:08;;;;;;;;;;;;;;;21.87;47.15;102344.41;7394248;19;19911;-48
2022/08/06 12:11:00;;;;;;;;;;;;;;;21.85;46.99;102344.72;7392078;19;19915;-55
2022/08/06 12:13:38;;;;;;;;;;;;;;;21.92;47.34;102347.69;7391149;19;20328;-48
2022/08/06 12:16:27;;;;;;;;;;;;;;;21.88;47.13;102340.34;7392885;19;20337;-50
2022/08/06 12:19:15;;;;;;;;;;;;;;;21.89;46.88;102348.44;7392503;19;19922;-47
2022/08/06 12:21:42;;;;;;;;;;;;;;;21.92;46.77;102347.69;7394348;19;19914;-49
2022/08/06 12:24:21;;;;;;;;;;;;;;;21.95;47.17;102352.53;7391369;19;20269;-49
2022/08/06 12:26:49;;;;;;;;;;;;;;;21.94;46.99;102345.28;7390319;19;19944;-47
2022/08/06 12:29:17;;;;;;;;;;;;;;;21.91;47.31;102343.22;7394903;19;19930;-47
2022/08/06 12:32:25;;;;;;;;;;;;;;;21.85;47.53;102342.72;7390829;19;19925;-51
2022/08/06 12:34:53;;;;;;;;;;;;;;;21.76;47.59;102349.88;7392234;19;19914;-47
2022/08/06 12:37:32;;;;;;;;;;;;;;;21.52;48.32;102350.34;7383235;19;20339;-53
2022/08/06 12:40:29;;;;;;;;;;;;;;;21.47;48.50;102345.03;7394625;19;20340;-49
2022/08/06 17:29:21;;;;;;;3.78;1.08;;;;;;;;;;7047386;19;2979748;-57
2022/08/06 17:31:47;;;;;;;2.20;1.13;;;;;;;;;;7348596;19;201025;-56
